createdAt,value
2022-09-15T00:02:28.214Z,4
2022-09-15T00:06:38.728Z,4.1
2022-09-15T00:10:46.588Z,4
2022-09-15T00:11:49.979Z,3.2
2022-09-15T00:13:53.949Z,2.8
2022-09-15T00:15:57.888Z,3.5
2022-09-15T00:18:01.972Z,3.7
2022-09-15T00:20:08.596Z,3.6
2022-09-15T00:22:12.551Z,3.1
2022-09-15T00:24:16.471Z,4.3
2022-09-15T00:26:20.410Z,4.1
2022-09-15T00:28:24.353Z,3.1
2022-09-15T00:30:28.355Z,3.6
2022-09-15T00:32:32.260Z,3.2
2022-09-15T00:34:39.039Z,3.5
2022-09-15T00:36:42.981Z,3.6
2022-09-15T00:38:46.951Z,3.3
2022-09-15T00:40:50.880Z,4.2
2022-09-15T00:44:58.773Z,3.9
2022-09-15T00:47:18.630Z,3.8
2022-09-15T00:49:09.498Z,3.4
2022-09-15T00:51:13.439Z,4
2022-09-15T00:53:17.431Z,3.5
2022-09-15T00:55:21.343Z,3.9
2022-09-15T00:57:25.296Z,3.4
2022-09-15T00:59:29.261Z,4.3
2022-09-15T01:01:33.247Z,4.2
2022-09-15T01:03:39.930Z,3.7
2022-09-15T01:05:43.904Z,4.1
2022-09-15T01:07:47.849Z,3.7
2022-09-15T01:10:55.189Z,4
2022-09-15T01:12:59.135Z,5.1
2022-09-15T01:19:29.153Z,4
2022-09-15T01:21:17.759Z,3.5
2022-09-15T01:23:21.710Z,4
2022-09-15T01:27:41.994Z,4.6
2022-09-15T01:29:33.534Z,4.5
2022-09-15T01:31:40.446Z,4.5
2022-09-15T01:33:44.325Z,4.2
2022-09-15T01:35:48.278Z,5.3
2022-09-15T01:39:56.217Z,4.9
2022-09-15T01:42:00.116Z,5.4
2022-09-15T01:44:04.168Z,5.2
2022-09-15T01:46:11.043Z,5.1
2022-09-15T01:48:14.843Z,5.2
2022-09-15T01:50:20.315Z,6
2022-09-15T01:52:24.307Z,5.2
2022-09-15T01:54:28.268Z,5.8
2022-09-15T01:56:32.282Z,5.7
2022-09-15T01:58:36.197Z,4.8
2022-09-15T02:00:43.011Z,5.6
2022-09-15T02:02:46.985Z,6.1
2022-09-15T02:04:50.958Z,5.5
2022-09-15T02:07:09.258Z,6.7
2022-09-15T02:13:23.909Z,5.4
2022-09-15T02:21:39.629Z,5
2022-09-15T02:32:06.743Z,6.7
2022-09-15T02:46:32.510Z,4.4
2022-09-15T02:48:36.452Z,4.4
2022-09-15T02:50:40.401Z,4.4
2022-09-15T02:52:44.326Z,3.8
2022-09-15T02:54:48.244Z,4.2
2022-09-15T02:56:55.027Z,3.8
2022-09-15T02:58:58.948Z,5.3
2022-09-15T03:01:02.957Z,4.5
2022-09-15T03:02:06.312Z,3.8
2022-09-15T03:04:10.222Z,3.7
2022-09-15T03:06:14.138Z,3.5
2022-09-15T03:14:32.693Z,5.2
2022-09-15T03:16:36.767Z,4
2022-09-15T03:18:40.608Z,4.9
2022-09-15T03:20:44.522Z,3.5
2022-09-15T03:24:55.244Z,4.7
2022-09-15T03:26:59.151Z,5.3
2022-09-15T03:29:03.100Z,5.7
2022-09-15T03:31:07.143Z,4.2
2022-09-15T03:33:11.006Z,5.1
2022-09-15T03:35:14.936Z,5.2
2022-09-15T03:37:18.854Z,4.7
2022-09-15T03:39:25.629Z,4.8
2022-09-15T03:41:29.543Z,3.3
2022-09-15T03:43:33.498Z,2.9
2022-09-15T03:45:37.487Z,2.8
2022-09-15T03:47:41.369Z,2.9
2022-09-15T03:49:45.316Z,3.5
2022-09-15T03:51:49.248Z,2.8
2022-09-15T03:55:59.924Z,2.4
2022-09-15T03:58:03.876Z,1.9
2022-09-15T03:59:07.250Z,1.9
2022-09-15T04:01:11.319Z,1.7
2022-09-15T04:03:15.138Z,2
2022-09-15T04:05:19.206Z,2.4
2022-09-15T04:07:25.821Z,2.1
2022-09-15T04:09:29.773Z,1.4
2022-09-15T04:15:41.605Z,1.3
2022-09-15T04:19:49.495Z,1.7
2022-09-15T04:24:00.182Z,1.5
2022-09-15T04:26:04.128Z,1
2022-09-15T04:34:19.916Z,1.7
2022-09-15T04:38:30.628Z,1.5
2022-09-15T04:40:34.562Z,2.6
2022-09-15T04:44:42.440Z,3.2
2022-09-15T04:46:46.476Z,3.1
2022-09-15T04:48:50.344Z,2.9
2022-09-15T04:50:58.043Z,2.7
2022-09-15T04:53:01.969Z,2.8
2022-09-15T04:55:05.910Z,2.4
2022-09-15T04:56:09.303Z,3
2022-09-15T04:58:13.254Z,2.7
2022-09-15T05:02:21.256Z,2.1
2022-09-15T05:04:27.896Z,2.6
2022-09-15T05:06:31.863Z,2.7
2022-09-15T05:08:35.788Z,2.2
2022-09-15T05:10:39.763Z,2.3
2022-09-15T05:12:43.666Z,2.2
2022-09-15T05:14:47.612Z,1.9
2022-09-15T05:16:51.563Z,2.1
2022-09-15T05:18:58.324Z,2.1
2022-09-15T05:21:02.279Z,3
2022-09-15T05:23:06.215Z,1.9
2022-09-15T05:25:10.166Z,2
2022-09-15T05:27:14.082Z,2.3
2022-09-15T05:29:18.036Z,1.9
2022-09-15T05:31:22.047Z,1.7
2022-09-15T05:33:28.761Z,2.3
2022-09-15T05:35:32.683Z,2
2022-09-15T05:37:36.646Z,2.2
2022-09-15T05:39:40.577Z,3.2
2022-09-15T05:41:44.520Z,2.4
2022-09-15T05:43:48.472Z,3.1
2022-09-15T05:47:59.233Z,2.9
2022-09-15T05:50:03.167Z,3.9
2022-09-15T05:52:07.339Z,2.8
2022-09-15T05:54:37.054Z,2.7
2022-09-15T05:56:40.978Z,3.4
2022-09-15T05:58:44.927Z,2.9
2022-09-15T06:00:51.706Z,3.8
2022-09-15T06:02:55.690Z,4
2022-09-15T06:04:59.620Z,3.6
2022-09-15T06:07:03.566Z,3.5
2022-09-15T06:09:07.515Z,2.5
2022-09-15T06:13:15.415Z,2.8
2022-09-15T06:15:22.185Z,2.2
2022-09-15T06:17:26.135Z,2.3
2022-09-15T06:19:30.086Z,2.3
2022-09-15T06:21:34.054Z,2.2
2022-09-15T06:23:38.001Z,2.6
2022-09-15T06:25:41.961Z,2
2022-09-15T06:29:52.696Z,2.9
2022-09-15T06:31:56.738Z,2.2
2022-09-15T06:34:00.600Z,1.5
2022-09-15T06:36:04.509Z,1.5
2022-09-15T06:38:08.469Z,1.7
2022-09-15T06:40:12.485Z,2.3
2022-09-15T06:42:16.352Z,2.5
2022-09-15T06:44:23.135Z,1.7
2022-09-15T06:46:27.147Z,1.1
2022-09-15T06:48:31.032Z,2.2
2022-09-15T06:49:34.429Z,1.3
2022-09-15T06:51:38.376Z,1.8
2022-09-15T06:53:42.326Z,2
2022-09-15T06:55:46.274Z,1.4
2022-09-15T06:59:57.014Z,1.2
2022-09-15T07:04:04.919Z,2.5
2022-09-15T07:06:08.886Z,1.7
2022-09-15T07:08:12.820Z,1.6
2022-09-15T07:10:16.770Z,1.5
2022-09-15T07:12:23.528Z,1.1
2022-09-15T07:14:27.502Z,0.9
2022-09-15T07:16:31.476Z,0.9
2022-09-15T07:24:47.229Z,0.6
2022-09-15T07:26:54.028Z,0.5
2022-09-15T07:28:57.952Z,1.2
2022-09-15T07:31:01.913Z,1.1
2022-09-15T07:33:05.872Z,0.9
2022-09-15T07:35:09.840Z,1.2
2022-09-15T07:37:13.759Z,0.9
2022-09-15T07:39:17.725Z,0.8
2022-09-15T07:41:24.499Z,0.8
2022-09-15T07:43:28.432Z,1.2
2022-09-15T07:45:32.443Z,1.3
2022-09-15T07:50:45.157Z,1.1
2022-09-15T07:52:49.099Z,0.7
2022-09-15T07:54:55.896Z,0.7
2022-09-15T07:56:59.876Z,0.7
2022-09-15T07:59:03.800Z,1.1
2022-09-15T08:01:07.847Z,0.7
2022-09-15T08:03:11.712Z,0.8
2022-09-15T08:05:15.669Z,0.7
2022-09-15T08:07:19.634Z,0.7
2022-09-15T08:09:26.391Z,3.4
2022-09-15T08:11:30.355Z,0.6
2022-09-15T08:13:34.310Z,0.5
2022-09-15T08:15:38.264Z,1.1
2022-09-15T08:17:42.204Z,0.8
2022-09-15T08:19:46.167Z,0.6
2022-09-15T08:21:50.100Z,0.4
2022-09-15T08:23:56.870Z,1.5
2022-09-15T08:26:00.801Z,0.7
2022-09-15T08:28:04.777Z,1
2022-09-15T08:30:08.724Z,0.7
2022-09-15T08:32:12.672Z,0.6
2022-09-15T08:34:16.641Z,0.6
2022-09-15T08:36:20.578Z,0.9
2022-09-15T08:38:27.372Z,0.5
2022-09-15T08:40:31.428Z,0.6
2022-09-15T08:42:35.235Z,0.9
2022-09-15T08:43:38.651Z,0.9
2022-09-15T08:45:42.588Z,0.8
2022-09-15T08:47:46.529Z,0.5
2022-09-15T08:51:57.250Z,0.7
2022-09-15T08:54:01.208Z,0.4
2022-09-15T08:56:09.359Z,1
2022-09-15T08:58:09.088Z,1
2022-09-15T09:02:17.006Z,0.5
2022-09-15T09:04:20.925Z,0.7
2022-09-15T09:06:27.705Z,0.8
2022-09-15T09:10:35.608Z,0.6
2022-09-15T09:14:43.486Z,0.6
2022-09-15T09:16:47.422Z,0.7
2022-09-15T09:18:51.383Z,0.7
2022-09-15T09:20:58.154Z,0.4
2022-09-15T09:23:02.082Z,0.5
2022-09-15T09:25:25.826Z,0.3
2022-09-15T09:27:09.970Z,1.1
2022-09-15T09:29:13.917Z,0.5
2022-09-15T09:31:17.943Z,0.6
2022-09-15T09:33:21.791Z,0.7
2022-09-15T09:35:28.559Z,0.6
2022-09-15T09:37:32.501Z,0.5
2022-09-15T09:39:36.431Z,1
2022-09-15T09:42:00.358Z,0.9
2022-09-15T09:44:04.860Z,0.3
2022-09-15T09:46:08.876Z,0.5
2022-09-15T09:48:15.569Z,1
2022-09-15T09:50:19.497Z,0.6
2022-09-15T09:52:23.444Z,0.6
2022-09-15T09:54:27.368Z,0.2
2022-09-15T09:56:31.284Z,1.1
2022-09-15T09:58:35.229Z,1
2022-09-15T10:00:39.158Z,0.9
2022-09-15T10:02:45.917Z,0.7
2022-09-15T10:04:49.942Z,0.6
2022-09-15T10:06:53.780Z,0.7
2022-09-15T10:08:57.695Z,0.8
2022-09-15T10:11:01.605Z,0.4
2022-09-15T10:13:05.548Z,0.7
2022-09-15T10:15:09.458Z,0.9
2022-09-15T10:17:16.233Z,0.5
2022-09-15T10:19:20.136Z,0.8
2022-09-15T10:21:24.067Z,0.4
2022-09-15T10:23:27.986Z,0.6
2022-09-15T10:27:35.820Z,0.6
2022-09-15T10:29:39.735Z,0.5
2022-09-15T10:31:46.610Z,0.7
2022-09-15T10:35:54.365Z,0.4
2022-09-15T10:36:57.738Z,0.7
2022-09-15T10:39:01.664Z,0.5
2022-09-15T10:41:05.581Z,0.4
2022-09-15T10:45:16.268Z,0.8
2022-09-15T10:47:20.207Z,0.4
2022-09-15T10:49:24.143Z,0.9
2022-09-15T10:51:28.052Z,0.7
2022-09-15T10:53:32.009Z,0.8
2022-09-15T10:57:39.846Z,0.2
2022-09-15T10:59:46.594Z,0.4
2022-09-15T11:05:58.394Z,1.5
2022-09-15T11:10:06.243Z,0.5
2022-09-15T11:12:10.160Z,0.5
2022-09-15T11:14:16.922Z,1.3
2022-09-15T11:16:20.949Z,0.6
2022-09-15T11:18:24.762Z,0.5
2022-09-15T11:24:36.521Z,0.5
2022-09-15T11:28:47.202Z,0.3
2022-09-15T11:32:57.899Z,1
2022-09-15T11:38:08.917Z,1.3
2022-09-15T11:42:16.939Z,0.7
2022-09-15T11:44:20.869Z,0.6
2022-09-15T11:46:24.795Z,1.4
2022-09-15T11:48:28.705Z,0.6
2022-09-15T11:52:36.535Z,0.4
2022-09-15T11:54:40.436Z,0.5
2022-09-15T11:56:47.200Z,0.6
2022-09-15T11:58:51.128Z,1
2022-09-15T12:00:55.092Z,0.4
2022-09-15T12:02:59.027Z,0.9
2022-09-15T12:07:09.824Z,0.8
2022-09-15T12:09:10.773Z,0.7
2022-09-15T12:11:17.573Z,0.5
2022-09-15T12:15:25.418Z,0.4
2022-09-15T12:21:37.264Z,0.6
2022-09-15T12:23:41.191Z,0.7
2022-09-15T12:25:47.990Z,0.6
2022-09-15T12:27:51.944Z,0.6
2022-09-15T12:29:55.879Z,0.7
2022-09-15T12:30:59.277Z,0.6
2022-09-15T12:33:03.201Z,0.5
2022-09-15T12:35:10.197Z,1
2022-09-15T12:37:11.091Z,0.7
2022-09-15T12:39:17.866Z,0.7
2022-09-15T12:43:25.749Z,0.5
2022-09-15T12:47:33.611Z,0.3
2022-09-15T12:49:37.551Z,0.7
2022-09-15T12:51:41.478Z,0.8
2022-09-15T12:53:48.276Z,0.6
2022-09-15T12:55:52.194Z,0.4
2022-09-15T12:57:56.155Z,0.7
2022-09-15T13:00:00.080Z,0.5
2022-09-15T13:02:04.092Z,0.3
2022-09-15T13:04:07.956Z,0.5
2022-09-15T13:06:11.877Z,0.6
2022-09-15T13:08:18.668Z,0.2
2022-09-15T13:12:26.548Z,0.5
2022-09-15T13:14:30.473Z,0.6
2022-09-15T13:16:34.409Z,0.5
2022-09-15T13:18:38.364Z,0.9
2022-09-15T13:22:49.069Z,0.5
2022-09-15T13:24:55.332Z,0.6
2022-09-15T13:29:26.589Z,0.6
2022-09-15T13:31:30.519Z,0.3
2022-09-15T13:35:41.235Z,0.6
2022-09-15T13:39:49.117Z,0.4
2022-09-15T13:41:53.044Z,0.6
2022-09-15T13:43:58.480Z,0.8
2022-09-15T13:48:06.311Z,1
2022-09-15T13:52:17.030Z,0.8
2022-09-15T13:54:20.963Z,0.3
2022-09-15T13:56:24.886Z,0.6
2022-09-15T14:00:32.768Z,0.3
2022-09-15T14:02:36.882Z,0.6
2022-09-15T14:04:43.480Z,0.5
2022-09-15T14:06:47.416Z,0.6
2022-09-15T14:08:51.409Z,0.3
2022-09-15T14:12:59.237Z,0.8
2022-09-15T14:15:03.189Z,0.2
2022-09-15T14:17:07.156Z,0.7
2022-09-15T14:19:13.889Z,0.6
2022-09-15T14:23:21.783Z,0.7
2022-09-15T14:24:25.211Z,0.2
2022-09-15T14:26:29.094Z,0.3
2022-09-15T14:28:33.052Z,0.7
2022-09-15T14:30:36.974Z,0.7
2022-09-15T14:32:43.743Z,0.2
2022-09-15T14:36:51.613Z,0.4
2022-09-15T14:38:55.546Z,0.5
2022-09-15T14:40:59.513Z,0.4
2022-09-15T14:43:03.438Z,0.9
2022-09-15T14:47:14.151Z,0.4
2022-09-15T14:49:18.092Z,0.8
2022-09-15T14:51:22.078Z,0.6
2022-09-15T14:53:25.983Z,0.4
2022-09-15T14:55:29.923Z,0.5
2022-09-15T14:57:33.927Z,0.5
2022-09-15T14:59:37.808Z,0.4
2022-09-15T15:01:44.610Z,0.3
2022-09-15T15:03:48.549Z,0.4
2022-09-15T15:05:58.116Z,0.7
2022-09-15T15:07:56.434Z,1.4
2022-09-15T15:10:00.413Z,0.7
2022-09-15T15:14:08.341Z,0.7
2022-09-15T15:21:26.350Z,0.6
2022-09-15T15:23:30.299Z,0.6
2022-09-15T15:25:34.236Z,0.4
2022-09-15T15:27:38.204Z,0.4
2022-09-15T15:29:44.983Z,0.7
2022-09-15T15:31:48.970Z,1.1
2022-09-15T15:33:53.018Z,0.2
2022-09-15T15:35:56.854Z,0.5
2022-09-15T15:38:00.811Z,0.5
2022-09-15T15:40:04.815Z,0.6
2022-09-15T15:42:08.721Z,0.7
2022-09-15T15:44:15.494Z,1.1
2022-09-15T15:48:23.391Z,0.6
2022-09-15T15:52:31.295Z,0.8
2022-09-15T15:54:35.260Z,0.6
2022-09-15T15:58:45.987Z,0.8
2022-09-15T16:02:53.921Z,0.8
2022-09-15T16:04:57.870Z,0.8
2022-09-15T16:07:01.831Z,0.1
2022-09-15T16:09:05.786Z,0.6
2022-09-15T16:11:09.725Z,0.7
2022-09-15T16:15:20.458Z,0.7
2022-09-15T16:17:24.426Z,0.7
2022-09-15T16:18:27.816Z,0.4
2022-09-15T16:22:35.738Z,0.9
2022-09-15T16:26:48.627Z,0.4
2022-09-15T16:28:50.428Z,0.9
2022-09-15T16:30:54.405Z,0.5
2022-09-15T16:32:58.345Z,0.5
2022-09-15T16:37:06.267Z,0.9
2022-09-15T16:39:10.217Z,0.7
2022-09-15T16:41:17.003Z,1
2022-09-15T16:43:20.958Z,0.8
2022-09-15T16:45:24.928Z,0.8
2022-09-15T16:47:28.876Z,0.5
2022-09-15T16:49:32.830Z,0.7
2022-09-15T16:51:36.774Z,1.2
2022-09-15T16:53:40.742Z,0.8
2022-09-15T16:55:47.520Z,0.4
2022-09-15T16:57:51.491Z,1.2
2022-09-15T16:59:55.451Z,0.9
2022-09-15T17:01:59.468Z,0.9
2022-09-15T17:04:03.348Z,1.4
2022-09-15T17:06:07.302Z,0.6
2022-09-15T17:08:11.259Z,0.6
2022-09-15T17:10:18.039Z,0.7
2022-09-15T17:12:21.991Z,0.6
2022-09-15T17:14:25.963Z,0.7
2022-09-15T17:16:55.641Z,0.6
2022-09-15T17:18:59.593Z,1.3
2022-09-15T17:21:03.562Z,0.7
2022-09-15T17:23:10.319Z,0.8
2022-09-15T17:25:14.264Z,0.6
2022-09-15T17:27:18.222Z,0.7
2022-09-15T17:29:22.175Z,0.8
2022-09-15T17:31:26.265Z,1.3
2022-09-15T17:33:30.106Z,1.6
2022-09-15T17:35:34.023Z,1.3
2022-09-15T17:37:40.789Z,0.6
2022-09-15T17:39:44.732Z,0.8
2022-09-15T17:41:48.673Z,0.8
2022-09-15T17:45:56.658Z,0.5
2022-09-15T17:50:04.480Z,0.4
2022-09-15T17:52:11.262Z,0.7
2022-09-15T17:54:15.217Z,0.6
2022-09-15T17:56:19.169Z,0.5
2022-09-15T17:58:23.125Z,0.7
2022-09-15T18:00:27.075Z,0.6
2022-09-15T18:02:31.030Z,0.6
2022-09-15T18:04:34.952Z,0.7
2022-09-15T18:06:45.401Z,1
2022-09-15T18:08:45.788Z,0.7
2022-09-15T18:10:49.616Z,0.5
2022-09-15T18:13:56.930Z,0.6
2022-09-15T18:16:00.967Z,0.9
2022-09-15T18:18:04.816Z,1.6
2022-09-15T18:20:11.574Z,0.6
2022-09-15T18:22:15.497Z,1
2022-09-15T18:24:19.467Z,0.7
2022-09-15T18:26:26.393Z,0.8
2022-09-15T18:28:27.346Z,1.1
2022-09-15T18:30:31.291Z,0.7
2022-09-15T18:32:35.229Z,1.8
2022-09-15T18:34:42.024Z,1
2022-09-15T18:36:45.927Z,1
2022-09-15T18:38:49.878Z,1.3
2022-09-15T18:40:53.828Z,2
2022-09-15T18:42:57.768Z,1
2022-09-15T18:45:01.721Z,1
2022-09-15T18:47:05.661Z,1
2022-09-15T18:49:12.419Z,1.7
2022-09-15T18:53:20.326Z,1.1
2022-09-15T18:59:32.156Z,0.7
2022-09-15T19:03:44.324Z,1.2
2022-09-15T19:07:50.720Z,1.1
2022-09-15T19:08:54.157Z,1.2
2022-09-15T19:10:58.082Z,1.1
2022-09-15T19:13:02.013Z,1.1
2022-09-15T19:15:10.662Z,1.5
2022-09-15T19:17:12.712Z,1
2022-09-15T19:21:25.210Z,0.8
2022-09-15T19:25:28.487Z,1.4
2022-09-15T19:27:32.448Z,1.3
2022-09-15T19:29:36.365Z,0.5
2022-09-15T19:31:43.137Z,0.7
2022-09-15T19:33:47.058Z,0.9
2022-09-15T19:36:04.695Z,0.7
2022-09-15T19:37:54.935Z,0.8
2022-09-15T19:39:58.919Z,0.9
2022-09-15T19:44:10.660Z,1.1
2022-09-15T19:46:15.068Z,1.1
2022-09-15T19:48:18.915Z,1.5
2022-09-15T19:50:22.829Z,1.2
2022-09-15T19:54:30.725Z,1.3
2022-09-15T19:56:34.648Z,0.8
2022-09-15T19:58:38.583Z,1.3
2022-09-15T20:00:45.353Z,0.4
2022-09-15T20:02:49.282Z,1.1
2022-09-15T20:07:01.499Z,0.8
2022-09-15T20:08:00.516Z,1.1
2022-09-15T20:10:04.470Z,0.9
2022-09-15T20:12:08.422Z,1.1
2022-09-15T20:14:15.142Z,1
2022-09-15T20:16:19.069Z,0.9
2022-09-15T20:18:23.032Z,0.6
2022-09-15T20:20:26.961Z,1
2022-09-15T20:22:30.929Z,0.9
2022-09-15T20:24:34.851Z,0.5
2022-09-15T20:26:38.804Z,1.4
2022-09-15T20:28:45.566Z,1.2
2022-09-15T20:30:49.492Z,1
2022-09-15T20:32:53.405Z,0.7
2022-09-15T20:34:57.342Z,1.1
2022-09-15T20:37:01.300Z,2
2022-09-15T20:39:05.229Z,0.8
2022-09-15T20:41:09.139Z,0.7
2022-09-15T20:45:19.836Z,0.7
2022-09-15T20:47:23.788Z,1
2022-09-15T20:49:27.713Z,0.9
2022-09-15T20:51:31.673Z,0.9
2022-09-15T20:53:35.565Z,1.2
2022-09-15T20:55:39.477Z,0.9
2022-09-15T20:57:46.241Z,1
2022-09-15T20:59:50.181Z,1.3
2022-09-15T21:01:54.127Z,1.3
2022-09-15T21:04:17.863Z,1.4
2022-09-15T21:06:21.784Z,1
2022-09-15T21:08:25.701Z,1.1
2022-09-15T21:10:32.453Z,1.4
2022-09-15T21:12:36.369Z,1
2022-09-15T21:14:40.309Z,1.6
2022-09-15T21:16:44.326Z,0.9
2022-09-15T21:18:48.167Z,0.8
2022-09-15T21:20:52.102Z,1.4
2022-09-15T21:25:02.787Z,1.2
2022-09-15T21:27:06.699Z,1.2
2022-09-15T21:29:10.625Z,3
2022-09-15T21:31:14.671Z,1.3
2022-09-15T21:33:18.465Z,0.8
2022-09-15T21:35:22.386Z,1.4
2022-09-15T21:37:26.321Z,1.4
2022-09-15T21:39:33.044Z,0.8
2022-09-15T21:41:36.987Z,1
2022-09-15T21:43:40.964Z,1.3
2022-09-15T21:45:44.915Z,1.2
2022-09-15T21:47:48.812Z,1.3
2022-09-15T21:49:52.814Z,0.7
2022-09-15T21:51:56.754Z,0.9
2022-09-15T21:54:03.473Z,0.8
2022-09-15T21:56:07.396Z,1.3
2022-09-15T21:58:11.427Z,1
2022-09-15T22:01:18.748Z,1.3
2022-09-15T22:03:22.664Z,1
2022-09-15T22:07:33.328Z,1.8
2022-09-15T22:09:37.213Z,1.4
2022-09-15T22:11:41.149Z,1.3
2022-09-15T22:13:45.094Z,1
2022-09-15T22:15:49.016Z,1.8
2022-09-15T22:17:52.923Z,1.2
2022-09-15T22:19:56.840Z,0.9
2022-09-15T22:22:03.590Z,1.2
2022-09-15T22:24:07.512Z,1.3
2022-09-15T22:26:11.464Z,1
2022-09-15T22:28:15.366Z,1.2
2022-09-15T22:30:19.306Z,0.8
2022-09-15T22:32:23.246Z,0.7
2022-09-15T22:34:27.150Z,0.9
2022-09-15T22:36:33.912Z,0.8
2022-09-15T22:38:37.833Z,0.7
2022-09-15T22:40:41.848Z,1
2022-09-15T22:42:45.713Z,1.1
2022-09-15T22:44:49.737Z,0.9
2022-09-15T22:48:57.619Z,1
2022-09-15T22:53:08.291Z,0.7
2022-09-15T22:56:15.592Z,1.2
2022-09-15T22:58:19.511Z,0.9
2022-09-15T23:00:23.432Z,0.6
2022-09-15T23:02:27.428Z,1.2
2022-09-15T23:04:34.091Z,0.9
2022-09-15T23:06:38.015Z,0.7
2022-09-15T23:12:49.799Z,1.2
2022-09-15T23:14:53.721Z,1.3
2022-09-15T23:16:57.656Z,1
2022-09-15T23:19:04.385Z,1.3
2022-09-15T23:21:08.332Z,1.6
2022-09-15T23:23:12.250Z,1.5
2022-09-15T23:25:16.208Z,1.3
2022-09-15T23:29:24.059Z,1.9
2022-09-15T23:31:28.076Z,1.9
2022-09-15T23:33:34.693Z,2
2022-09-15T23:35:38.605Z,5.4
2022-09-15T23:37:42.550Z,3.7
2022-09-15T23:39:46.521Z,1.9
2022-09-15T23:41:50.403Z,1.4
2022-09-15T23:43:54.318Z,2.3
2022-09-15T23:45:58.246Z,1.9
2022-09-15T23:48:04.967Z,2.4
2022-09-15T23:50:08.892Z,2.5
2022-09-15T23:52:12.814Z,1.7
2022-09-15T23:53:16.234Z,2.2
2022-09-15T23:57:24.082Z,2.3
2022-09-15T23:59:27.992Z,2.1
